Time;durP1;ratioP1;P1;durP2;ratioP2;P2;SDS_P1;SDS_P2;PMS_P1;PMS_P2;Temp;Humidity;BMP_temperature;BMP_pressure;BME280_temperature;BME280_humidity;BME280_pressure;Samples;Min_cycle;Max_cycle;Signal;HPM_P1;HPM_P2
2022/01/20 00:01:49;;;;;;;46.45;23.25;;;25.90;2201.60;;;;;;4876751;29;20487;-80
2022/01/20 00:04:28;;;;;;;64.05;24.63;;;25.70;2201.60;;;;;;4876314;29;20085;-80
2022/01/20 00:26:17;;;;;;;43.13;21.73;;;25.60;2201.60;;;;;;4876553;29;20457;-77
2022/01/20 00:28:46;;;;;;;57.00;22.08;;;0.80;2201.60;;;;;;4876310;29;20041;-78
2022/01/20 00:33:53;;;;;;;55.17;24.33;;;0.60;2201.60;;;;;;4876700;29;20402;-81
2022/01/20 00:39:04;;;;;;;61.67;25.25;;;0.80;2201.60;;;;;;4875649;29;20430;-75
2022/01/20 00:41:31;;;;;;;57.67;23.77;;;0.60;2201.60;;;;;;4875641;29;20056;-82
2022/01/20 00:43:56;;;;;;;;;;;0.40;2201.60;;;;;;4852555;29;20025;-77
2022/01/20 00:46:22;;;;;;;58.47;24.60;;;0.60;2201.60;;;;;;4875872;29;19908;-79
2022/01/20 00:48:47;;;;;;;;;;;0.50;2201.60;;;;;;4860384;29;20146;-81
2022/01/20 00:51:13;;;;;;;59.05;22.98;;;0.60;2201.60;;;;;;4860161;29;20379;-81
2022/01/20 00:53:44;;;;;;;51.85;24.75;;;0.90;2201.60;;;;;;4884543;29;20036;-80
2022/01/20 00:56:12;;;;;;;54.38;24.48;;;25.70;2201.60;;;;;;4903907;29;20576;-81
2022/01/20 00:58:38;;;;;;;58.78;26.00;;;25.70;2201.60;;;;;;4912227;29;20033;-81
2022/01/20 01:01:04;;;;;;;54.20;24.38;;;25.80;2201.60;;;;;;4914492;29;20024;-75
2022/01/20 01:03:30;;;;;;;;;;;25.90;2201.60;;;;;;4899166;29;20035;-80
2022/01/20 01:06:21;;;;;;;70.15;26.58;;;25.80;2201.60;;;;;;4907280;29;20280;-77
2022/01/20 01:08:42;;;;;;;44.72;19.85;;;0.80;2201.60;;;;;;4907438;29;20162;-81
2022/01/20 01:11:08;;;;;;;;;;;25.60;2201.60;;;;;;4907981;29;20540;-78
2022/01/20 01:13:33;;;;;;;54.28;24.77;;;25.90;2201.60;;;;;;4909411;29;19907;-77
2022/01/20 01:15:59;;;;;;;;;;;25.90;2201.60;;;;;;4914499;29;20061;-77
2022/01/20 01:24:06;;;;;;;52.33;24.17;;;26.10;2201.60;;;;;;4840901;29;20046;-76
2022/01/20 01:26:31;;;;;;;51.42;23.98;;;25.60;2201.60;;;;;;4825300;29;20120;-76
2022/01/20 01:28:58;;;;;;;;;;;25.70;2201.60;;;;;;4841224;29;20117;-78
2022/01/20 01:33:58;;;;;;;;;;;0.70;2201.60;;;;;;4841630;29;20022;-79
2022/01/20 01:36:27;;;;;;;59.65;24.92;;;0.70;2201.60;;;;;;4840617;29;19965;-79
2022/01/20 01:38:53;;;;;;;56.10;22.88;;;0.60;2201.60;;;;;;4799293;29;1247240;-79
2022/01/20 01:41:34;;;;;;;;;;;0.50;2201.60;;;;;;4842287;29;20278;-76
2022/01/20 01:44:05;;;;;;;57.30;25.40;;;0.50;2201.60;;;;;;4841439;29;19945;-78
2022/01/20 01:46:31;;;;;;;62.92;24.92;;;0.50;2201.60;;;;;;4841711;29;20543;-79
2022/01/20 01:48:57;;;;;;;;;;;0.60;2201.60;;;;;;4842048;29;20114;-75
2022/01/20 01:51:23;;;;;;;61.83;25.45;;;0.50;2201.60;;;;;;4841905;29;19944;-77
2022/01/20 01:53:49;;;;;;;58.67;24.42;;;0.30;2201.60;;;;;;4841410;29;20479;-77
2022/01/20 01:56:15;;;;;;;;;;;0.30;2201.60;;;;;;4841857;29;20653;-79
2022/01/20 01:58:41;;;;;;;62.60;25.35;;;0.30;2201.60;;;;;;4841337;29;20007;-78
2022/01/20 02:01:06;;;;;;;;;;;0.40;2201.60;;;;;;4881484;29;20116;-76
2022/01/20 02:03:41;;;;;;;52.35;22.70;;;0.40;2201.60;;;;;;4888139;29;19993;-76
2022/01/20 02:19:54;;;;;;;55.83;25.60;;;25.70;2201.60;;;;;;4892003;29;20096;-76
2022/01/20 02:22:20;;;;;;;60.38;27.15;;;0.90;2201.60;;;;;;4873806;29;20033;-76
2022/01/20 02:24:45;;;;;;;;;;;0.70;2201.60;;;;;;4888070;29;20476;-76
2022/01/20 02:27:11;;;;;;;54.10;25.67;;;0.60;2201.60;;;;;;4889200;29;19911;-75
2022/01/20 02:29:37;;;;;;;;;;;0.60;2201.60;;;;;;4890337;29;20143;-76
2022/01/20 02:32:03;;;;;;;64.22;28.48;;;0.60;2201.60;;;;;;4888783;29;19913;-79
2022/01/20 02:34:30;;;;;;;62.63;28.25;;;0.40;2201.60;;;;;;4897135;29;20541;-78
2022/01/20 02:36:59;;;;;;;72.22;30.95;;;0.50;2201.60;;;;;;4895807;29;20093;-75
2022/01/20 02:44:57;;;;;;;73.32;30.40;;;25.60;2201.60;;;;;;4908994;29;20050;-80
2022/01/20 02:47:30;;;;;;;74.85;31.10;;;0.80;2201.60;;;;;;4891871;29;20409;-78
2022/01/20 02:49:56;;;;;;;72.55;32.10;;;0.90;2201.60;;;;;;4913705;29;20146;-79
2022/01/20 02:52:23;;;;;;;;;;;25.60;2201.60;;;;;;4909242;29;20029;-81
2022/01/20 02:54:50;;;;;;;60.30;24.77;;;0.90;2201.60;;;;;;4907334;29;19915;-78
2022/01/20 02:57:16;;;;;;;75.97;33.08;;;0.80;2201.60;;;;;;4906536;29;20036;-76
2022/01/20 02:59:43;;;;;;;75.78;34.30;;;0.90;2201.60;;;;;;4908242;29;20076;-80
2022/01/20 03:02:09;;;;;;;74.20;31.80;;;0.70;2201.60;;;;;;4908483;29;20079;-81
2022/01/20 03:04:38;;;;;;;73.15;34.17;;;0.70;2201.60;;;;;;4908454;29;20024;-80
2022/01/20 03:07:05;;;;;;;73.63;34.78;;;0.90;2201.60;;;;;;4909021;29;20456;-75
2022/01/20 03:09:31;;;;;;;78.60;34.35;;;0.80;2201.60;;;;;;4906628;29;20104;-78
2022/01/20 03:11:58;;;;;;;72.95;34.22;;;25.90;2201.60;;;;;;4908682;29;20031;-78
2022/01/20 03:14:24;;;;;;;77.88;37.17;;;25.80;2201.60;;;;;;4897175;29;20088;-78
2022/01/20 03:16:49;;;;;;;;;;;25.90;2201.60;;;;;;4907658;29;20036;-75
2022/01/20 03:19:16;;;;;;;81.35;34.33;;;25.90;2201.60;;;;;;4907968;29;19998;-79
2022/01/20 03:21:42;;;;;;;85.03;36.47;;;25.70;2201.60;;;;;;4907940;29;20536;-80
2022/01/20 03:24:09;;;;;;;75.43;36.08;;;25.60;2201.60;;;;;;4909746;29;20017;-80
2022/01/20 03:26:35;;;;;;;87.70;36.85;;;0.80;2201.60;;;;;;4906050;29;20469;-77
2022/01/20 03:29:03;;;;;;;77.05;35.90;;;0.80;2201.60;;;;;;4907930;29;20017;-76
2022/01/20 03:31:30;;;;;;;84.95;37.67;;;0.90;2201.60;;;;;;4906506;29;20027;-76
2022/01/20 03:33:56;;;;;;;84.72;36.30;;;25.70;2201.60;;;;;;4906304;29;20020;-79
2022/01/20 03:36:21;;;;;;;;;;;0.90;2201.60;;;;;;4908732;29;20367;-80
2022/01/20 03:38:47;;;;;;;79.40;32.63;;;0.70;2201.60;;;;;;4906991;29;20355;-80
2022/01/20 03:41:13;;;;;;;;;;;0.80;2201.60;;;;;;4905853;29;20470;-79
2022/01/20 03:43:39;;;;;;;78.10;34.00;;;0.90;2201.60;;;;;;4907505;29;19922;-77
2022/01/20 03:46:11;;;;;;;;;;;25.60;2201.60;;;;;;4911417;29;20442;-80
2022/01/20 03:48:48;;;;;;;74.75;34.63;;;26.10;2201.60;;;;;;4911200;29;20013;-77
2022/01/20 03:51:14;;;;;;;88.50;35.65;;;26.00;2201.60;;;;;;4907741;29;20028;-80
2022/01/20 03:53:40;;;;;;;76.28;35.92;;;25.90;2201.60;;;;;;4905409;29;20028;-76
2022/01/20 03:56:06;;;;;;;;;;;26.00;2201.60;;;;;;4915228;29;20039;-79
2022/01/20 03:58:32;;;;;;;75.60;35.63;;;25.90;2201.60;;;;;;4889746;29;19933;-76
2022/01/20 04:00:58;;;;;;;;;;;26.20;2201.60;;;;;;4907782;29;20081;-77
2022/01/20 04:03:24;;;;;;;84.97;36.03;;;26.30;2201.60;;;;;;4905631;29;20296;-74
2022/01/20 04:05:59;;;;;;;;;;;26.30;2201.60;;;;;;4906062;29;20035;-78
2022/01/20 04:08:33;;;;;;;81.82;37.75;;;26.20;2201.60;;;;;;4905613;29;19911;-78
2022/01/20 04:11:00;;;;;;;82.47;39.53;;;26.20;2201.60;;;;;;4905809;29;20130;-78
2022/01/20 04:13:31;;;;;;;81.50;39.25;;;26.50;2201.60;;;;;;4890468;29;20068;-77
2022/01/20 04:16:00;;;;;;;89.72;37.60;;;51.20;2227.20;;;;;;4890417;29;20135;-77
2022/01/20 04:18:27;;;;;;;89.65;40.67;;;51.30;2227.20;;;;;;4913246;29;20088;-77
2022/01/20 04:20:54;;;;;;;79.68;41.22;;;51.30;2227.20;;;;;;4915903;29;20032;-75
2022/01/20 04:23:20;;;;;;;80.63;36.78;;;51.30;2227.20;;;;;;4905465;29;20095;-79
2022/01/20 04:25:46;;;;;;;;;;;26.50;2201.60;;;;;;4905761;29;20488;-75
2022/01/20 04:28:11;;;;;;;89.85;37.90;;;26.40;2201.60;;;;;;4906632;29;19907;-74
2022/01/20 04:30:37;;;;;;;;;;;26.40;2201.60;;;;;;4906767;29;20029;-79
2022/01/20 04:33:03;;;;;;;76.80;35.47;;;26.20;2201.60;;;;;;4888293;29;20003;-80
2022/01/20 04:35:28;;;;;;;;;;;26.20;2201.60;;;;;;4907279;29;20025;-76
2022/01/20 04:37:56;;;;;;;91.65;39.38;;;25.80;2201.60;;;;;;4907047;29;19958;-76
2022/01/20 04:40:22;;;;;;;90.57;40.60;;;25.70;2201.60;;;;;;4910677;29;20032;-79
2022/01/20 04:42:49;;;;;;;;;;;25.60;2201.60;;;;;;4908472;29;20031;-77
2022/01/20 04:45:31;;;;;;;66.97;31.23;;;0.80;2201.60;;;;;;4908145;29;19911;-74
2022/01/20 04:48:14;;;;;;;83.13;37.58;;;25.70;2201.60;;;;;;4910541;29;20048;-77
2022/01/20 04:58:52;;;;;;;88.63;40.25;;;0.70;2201.60;;;;;;4912249;29;20043;-76
2022/01/20 05:01:18;;;;;;;;;;;0.70;2201.60;;;;;;4909344;29;20033;-80
2022/01/20 05:03:45;;;;;;;102.18;42.53;;;0.70;2201.60;;;;;;4910941;29;19914;-80
2022/01/20 05:06:11;;;;;;;91.22;44.65;;;0.80;2201.60;;;;;;4909193;29;20029;-81
2022/01/20 05:08:36;;;;;;;;;;;0.50;2201.60;;;;;;4892724;29;20492;-79
2022/01/20 05:11:04;;;;;;;96.57;42.00;;;0.60;2201.60;;;;;;4910670;29;20451;-78
2022/01/20 05:13:36;;;;;;;91.03;43.00;;;0.80;2201.60;;;;;;4908858;29;20039;-78
2022/01/20 05:16:03;;;;;;;102.57;43.88;;;25.70;2201.60;;;;;;4891810;29;20043;-80
2022/01/20 05:18:28;;;;;;;111.00;47.08;;;25.70;2201.60;;;;;;4893543;29;20058;-81
2022/01/20 05:20:54;;;;;;;;;;;25.90;2201.60;;;;;;4909373;29;20052;-79
2022/01/20 05:23:20;;;;;;;98.03;42.10;;;26.00;2201.60;;;;;;4908986;29;20415;-76
2022/01/20 05:25:45;;;;;;;;;;;26.10;2201.60;;;;;;4910783;29;20035;-78
2022/01/20 05:28:11;;;;;;;106.50;45.22;;;26.00;2201.60;;;;;;4909833;29;19907;-78
2022/01/20 05:30:38;;;;;;;;;;;25.80;2201.60;;;;;;4909459;29;20033;-81
2022/01/20 05:33:05;;;;;;;79.88;35.80;;;25.90;2201.60;;;;;;4913635;29;19915;-79
2022/01/20 05:35:30;;;;;;;;;;;26.00;2201.60;;;;;;4918744;29;20036;-79
2022/01/20 05:37:57;;;;;;;101.78;43.03;;;26.00;2201.60;;;;;;4896240;29;19933;-80
2022/01/20 05:40:23;;;;;;;90.38;43.55;;;26.10;2201.60;;;;;;4891148;29;20044;-77
2022/01/20 05:42:49;;;;;;;97.57;45.15;;;26.20;2201.60;;;;;;4910805;29;20049;-79
2022/01/20 05:45:15;;;;;;;;;;;26.30;2201.60;;;;;;4908400;29;20103;-79
2022/01/20 05:47:46;;;;;;;101.32;41.53;;;26.30;2201.60;;;;;;4910278;29;20395;-78
2022/01/20 05:50:18;;;;;;;103.65;47.33;;;26.30;2201.60;;;;;;4914512;29;20485;-80
2022/01/20 05:52:45;;;;;;;94.53;45.58;;;26.40;2201.60;;;;;;4909600;29;20069;-79
2022/01/20 05:55:21;;;;;;;97.95;44.10;;;26.30;2201.60;;;;;;4891258;29;20029;-81
2022/01/20 05:57:47;;;;;;;81.10;38.80;;;26.20;2201.60;;;;;;4910142;29;20028;-78
2022/01/20 06:00:15;;;;;;;;;;;26.30;2201.60;;;;;;4908716;29;20025;-81
2022/01/20 06:05:25;;;;;;;94.20;43.80;;;26.20;2201.60;;;;;;4909755;29;20153;-80
2022/01/20 06:07:51;;;;;;;;;;;26.00;2201.60;;;;;;4907038;29;20048;-79
2022/01/20 06:10:17;;;;;;;90.25;42.88;;;25.90;2201.60;;;;;;4908390;29;19915;-79
2022/01/20 06:12:42;;;;;;;107.68;47.50;;;25.70;2201.60;;;;;;4909409;29;20021;-76
2022/01/20 06:15:10;;;;;;;;;;;25.60;2201.60;;;;;;4907804;29;20423;-79
2022/01/20 06:17:37;;;;;;;109.20;47.42;;;25.80;2201.60;;;;;;4907229;29;20005;-80
2022/01/20 06:20:05;;;;;;;108.05;48.10;;;26.00;2201.60;;;;;;4910330;29;20096;-79
2022/01/20 06:22:31;;;;;;;125.15;53.35;;;26.00;2201.60;;;;;;4909333;29;20549;-81
2022/01/20 06:24:56;;;;;;;;;;;25.90;2201.60;;;;;;4908543;29;20099;-77
2022/01/20 06:27:22;;;;;;;109.43;46.90;;;26.10;2201.60;;;;;;4906674;29;19911;-81
2022/01/20 06:29:48;;;;;;;;;;;26.00;2201.60;;;;;;4912419;29;20051;-81
2022/01/20 06:32:13;;;;;;;95.32;46.90;;;26.20;2201.60;;;;;;4917290;29;19907;-81
2022/01/20 06:34:39;;;;;;;;;;;25.80;2201.60;;;;;;4917803;29;20016;-76
2022/01/20 06:37:05;;;;;;;132.57;56.65;;;25.70;2201.60;;;;;;4912048;29;19915;-78
2022/01/20 06:39:31;;;;;;;;;;;25.70;2201.60;;;;;;4890489;29;20044;-80
2022/01/20 06:41:56;;;;;;;107.25;47.35;;;25.60;2201.60;;;;;;4908083;29;19907;-77
2022/01/20 06:44:22;;;;;;;;;;;0.80;2201.60;;;;;;4907894;29;20544;-79
2022/01/20 06:46:51;;;;;;;97.43;45.80;;;0.70;2201.60;;;;;;4909361;29;19961;-81
2022/01/20 06:49:18;;;;;;;105.47;49.33;;;0.60;2201.60;;;;;;4917019;29;20117;-81
2022/01/20 06:51:45;;;;;;;96.85;46.38;;;0.70;2201.60;;;;;;4907379;29;20024;-78
2022/01/20 06:54:11;;;;;;;101.13;48.45;;;25.80;2201.60;;;;;;4908422;29;20103;-77
2022/01/20 06:56:38;;;;;;;101.25;44.70;;;25.90;2201.60;;;;;;4913674;29;20397;-83
2022/01/20 06:59:04;;;;;;;101.60;46.47;;;26.00;2201.60;;;;;;4907885;29;20016;-77
2022/01/20 07:01:29;;;;;;;;;;;26.10;2201.60;;;;;;4913893;29;20047;-80
2022/01/20 07:03:55;;;;;;;99.15;44.35;;;26.00;2201.60;;;;;;4917488;29;19907;-75
2022/01/20 07:06:21;;;;;;;;;;;26.20;2201.60;;;;;;4917719;29;20056;-74
2022/01/20 07:08:47;;;;;;;101.25;45.65;;;26.10;2201.60;;;;;;4917417;29;19964;-74
2022/01/20 07:11:13;;;;;;;134.43;61.47;;;26.20;2201.60;;;;;;4908570;29;20032;-80
2022/01/20 07:13:39;;;;;;;;;;;26.10;2201.60;;;;;;4906762;29;20550;-74
2022/01/20 07:16:04;;;;;;;111.85;48.55;;;26.30;2201.60;;;;;;4888809;29;19922;-77
2022/01/20 07:18:31;;;;;;;;;;;26.20;2201.60;;;;;;4909294;29;20020;-78
2022/01/20 07:20:56;;;;;;;104.80;45.00;;;26.30;2201.60;;;;;;4893957;29;19911;-76
2022/01/20 07:23:22;;;;;;;;;;;26.20;2201.60;;;;;;4917206;29;20032;-75
2022/01/20 07:25:48;;;;;;;106.10;46.50;;;26.00;2201.60;;;;;;4899896;29;19949;-75
2022/01/20 07:28:13;;;;;;;;;;;26.20;2201.60;;;;;;4907761;29;20021;-78
2022/01/20 07:30:39;;;;;;;107.20;44.08;;;26.30;2201.60;;;;;;4896576;29;20468;-75
2022/01/20 07:33:05;;;;;;;;;;;26.20;2201.60;;;;;;4898266;29;20025;-76
2022/01/20 07:35:32;;;;;;;97.38;44.55;;;26.40;2201.60;;;;;;4880868;29;19967;-74
2022/01/20 07:37:57;;;;;;;99.40;43.78;;;51.20;2227.20;;;;;;4895842;29;20040;-80
2022/01/20 07:40:23;;;;;;;;;;;51.20;2227.20;;;;;;4881368;29;20032;-75
2022/01/20 07:42:49;;;;;;;86.63;42.55;;;51.20;2227.20;;;;;;4880553;29;19915;-75
2022/01/20 07:45:17;;;;;;;;;;;51.20;2227.20;;;;;;4898224;29;20035;-79
2022/01/20 07:47:43;;;;;;;99.07;45.53;;;51.40;2227.20;;;;;;4880764;29;19914;-78
2022/01/20 07:50:09;;;;;;;;;;;51.20;2227.20;;;;;;4881582;29;20032;-76
2022/01/20 07:52:35;;;;;;;100.90;43.67;;;51.50;2227.20;;;;;;4897554;29;19964;-77
2022/01/20 07:55:00;;;;;;;109.10;49.83;;;51.80;2227.20;;;;;;4896954;29;20088;-74
2022/01/20 07:57:26;;;;;;;;;;;51.80;2227.20;;;;;;4899481;29;20123;-75
2022/01/20 07:59:52;;;;;;;104.35;44.88;;;51.90;2227.20;;;;;;4899702;29;20328;-74
2022/01/20 08:02:17;;;;;;;;;;;51.80;2227.20;;;;;;4916708;29;20103;-76
2022/01/20 08:04:43;;;;;;;97.18;43.20;;;51.80;2227.20;;;;;;4916325;29;19914;-77
2022/01/20 08:07:09;;;;;;;;;;;51.80;2227.20;;;;;;4916801;29;20083;-82
2022/01/20 08:09:34;;;;;;;93.53;44.35;;;51.80;2227.20;;;;;;4888958;29;20309;-81
2022/01/20 08:12:00;;;;;;;;;;;51.90;2227.20;;;;;;4907730;29;20080;-84
2022/01/20 08:14:28;;;;;;;97.00;43.70;;;51.90;2227.20;;;;;;4892945;29;20406;-76
2022/01/20 08:16:53;;;;;;;91.05;46.17;;;51.90;2227.20;;;;;;4910224;29;20062;-83
2022/01/20 08:19:19;;;;;;;;;;;51.90;2227.20;;;;;;4893837;29;20060;-88
2022/01/20 08:21:45;;;;;;;88.95;42.67;;;52.00;2227.20;;;;;;4919553;29;19907;-87
2022/01/20 08:24:10;;;;;;;;;;;51.60;2227.20;;;;;;4903446;29;20032;-75
2022/01/20 08:26:36;;;;;;;108.60;46.55;;;51.90;2227.20;;;;;;4920216;29;19907;-76
2022/01/20 08:29:02;;;;;;;;;;;51.80;2227.20;;;;;;4897667;29;20021;-88
2022/01/20 08:31:29;;;;;;;87.60;41.72;;;51.50;2227.20;;;;;;4909388;29;19921;-85
2022/01/20 08:33:55;;;;;;;108.15;49.45;;;51.60;2227.20;;;;;;4907985;29;20013;-89
2022/01/20 08:36:21;;;;;;;;;;;51.60;2227.20;;;;;;4910372;29;20565;-91
2022/01/20 08:38:46;;;;;;;102.82;43.15;;;51.80;2227.20;;;;;;4908015;29;19955;-75
2022/01/20 08:41:12;;;;;;;;;;;51.90;2227.20;;;;;;4909844;29;20028;-74
2022/01/20 08:43:38;;;;;;;111.38;49.25;;;51.90;2227.20;;;;;;4895127;29;19914;-75
2022/01/20 08:46:07;;;;;;;135.60;55.35;;;51.80;2227.20;;;;;;4919334;29;20103;-74
2022/01/20 08:48:35;;;;;;;125.78;57.83;;;51.80;2227.20;;;;;;4919339;29;20448;-90
2022/01/20 08:51:01;;;;;;;130.90;57.22;;;51.90;2227.20;;;;;;4899514;29;20047;-81
2022/01/20 08:53:27;;;;;;;124.25;57.15;;;52.00;2227.20;;;;;;4911810;29;20452;-82
2022/01/20 08:55:53;;;;;;;116.22;53.40;;;51.70;2227.20;;;;;;4902993;29;20132;-83
2022/01/20 08:58:19;;;;;;;;;;;51.70;2227.20;;;;;;4901066;29;20037;-84
2022/01/20 09:00:44;;;;;;;116.95;50.47;;;52.00;2227.20;;;;;;4900744;29;19907;-85
2022/01/20 09:03:11;;;;;;;;;;;76.80;2227.20;;;;;;4899918;29;20029;-75
2022/01/20 09:05:37;;;;;;;90.90;41.95;;;52.00;2227.20;;;;;;4901585;29;19911;-75
2022/01/20 09:08:04;;;;;;;;;;;52.10;2227.20;;;;;;4919750;29;20036;-75
2022/01/20 09:10:37;;;;;;;92.65;36.20;;;76.80;2227.20;;;;;;4919052;29;19966;-83
2022/01/20 09:15:48;;;;;;;88.75;41.00;;;76.90;2227.20;;;;;;4910279;29;20067;-86
2022/01/20 09:18:14;;;;;;;89.75;42.92;;;52.00;2227.20;;;;;;4889336;29;20041;-74
2022/01/20 09:20:40;;;;;;;91.18;39.72;;;51.90;2227.20;;;;;;4916199;29;20055;-79
2022/01/20 09:23:07;;;;;;;89.13;40.70;;;52.00;2227.20;;;;;;4919178;29;20384;-85
2022/01/20 09:25:34;;;;;;;87.07;38.17;;;51.80;2227.20;;;;;;4918550;29;20441;-76
2022/01/20 09:28:00;;;;;;;82.75;37.85;;;51.80;2227.20;;;;;;4917686;29;20180;-90
2022/01/20 09:30:27;;;;;;;86.13;38.70;;;76.80;2227.20;;;;;;4901857;29;20032;-86
2022/01/20 09:33:11;;;;;;;86.38;39.65;;;77.10;2227.20;;;;;;4918877;29;20024;-79
2022/01/20 09:35:38;;;;;;;82.38;40.45;;;76.80;2227.20;;;;;;4917753;29;20123;-75
2022/01/20 09:38:05;;;;;;;90.13;40.75;;;76.90;2227.20;;;;;;4918866;29;20127;-83
2022/01/20 09:40:33;;;;;;;87.85;41.72;;;77.00;2227.20;;;;;;4918955;29;20035;-87
2022/01/20 09:43:00;;;;;;;94.50;42.80;;;77.00;2227.20;;;;;;4905805;29;20033;-75
2022/01/20 09:45:26;;;;;;;92.93;43.22;;;77.00;2227.20;;;;;;4899890;29;20033;-74
2022/01/20 09:47:52;;;;;;;91.75;42.95;;;77.00;2227.20;;;;;;4914028;29;20046;-77
2022/01/20 09:50:20;;;;;;;95.63;42.42;;;77.20;2227.20;;;;;;4906806;29;20127;-90
2022/01/20 09:52:48;;;;;;;84.47;42.30;;;76.90;2227.20;;;;;;4903059;29;20478;-75
2022/01/20 09:55:15;;;;;;;91.25;40.83;;;76.80;2227.20;;;;;;4910048;29;20036;-91
2022/01/20 09:57:40;;;;;;;87.15;39.63;;;76.80;2227.20;;;;;;4890929;29;20032;-88
2022/01/20 10:00:09;;;;;;;86.03;38.92;;;52.10;2227.20;;;;;;4893288;29;20044;-76
2022/01/20 10:02:35;;;;;;;91.30;41.65;;;76.80;2227.20;;;;;;4907665;29;20029;-75
2022/01/20 10:05:02;;;;;;;84.30;41.60;;;52.10;2227.20;;;;;;4906998;29;20037;-91
2022/01/20 10:07:35;;;;;;;80.50;39.80;;;52.10;2227.20;;;;;;4910423;29;20151;-89
2022/01/20 10:10:02;;;;;;;85.45;38.30;;;77.00;2227.20;;;;;;4909600;29;20056;-91
2022/01/20 10:12:30;;;;;;;93.28;41.00;;;77.10;2227.20;;;;;;4907758;29;20028;-88
2022/01/20 10:14:57;;;;;;;83.20;37.58;;;77.10;2227.20;;;;;;4908063;29;20414;-88
2022/01/20 10:17:29;;;;;;;82.30;40.10;;;77.20;2227.20;;;;;;4910946;29;20039;-89
2022/01/20 10:20:00;;;;;;;76.82;37.78;;;77.10;2227.20;;;;;;4907099;29;20465;-92
2022/01/20 10:22:27;;;;;;;89.28;40.58;;;77.10;2227.20;;;;;;4912621;29;20036;-90
2022/01/20 10:25:07;;;;;;;84.55;42.80;;;77.10;2227.20;;;;;;4906949;29;20055;-91
2022/01/20 10:27:46;;;;;;;87.00;40.85;;;77.20;2227.20;;;;;;4908972;29;20040;-84
2022/01/20 10:30:11;;;;;;;91.80;42.17;;;77.10;2227.20;;;;;;4906880;29;20040;-85
2022/01/20 10:32:51;;;;;;;94.57;41.47;;;77.20;2227.20;;;;;;4909774;29;20028;-86
2022/01/20 10:35:24;;;;;;;86.93;40.80;;;77.20;2227.20;;;;;;4909062;29;20531;-76
2022/01/20 10:37:59;;;;;;;80.63;38.67;;;77.10;2227.20;;;;;;4905546;29;20075;-89
2022/01/20 10:40:25;;;;;;;92.03;43.33;;;77.10;2227.20;;;;;;4908574;29;20036;-77
2022/01/20 10:42:51;;;;;;;83.07;40.75;;;77.10;2227.20;;;;;;4909159;29;20020;-86
2022/01/20 10:45:25;;;;;;;85.13;40.67;;;77.10;2227.20;;;;;;4914940;29;20039;-75
2022/01/20 10:47:53;;;;;;;86.70;40.97;;;77.00;2227.20;;;;;;4917898;29;20028;-89
2022/01/20 10:50:23;;;;;;;83.80;39.25;;;76.80;2227.20;;;;;;4908789;29;20029;-76
2022/01/20 10:52:51;;;;;;;82.05;38.70;;;76.90;2227.20;;;;;;4908708;29;20111;-75
2022/01/20 10:55:28;;;;;;;79.30;38.85;;;76.90;2227.20;;;;;;4916320;29;20020;-84
2022/01/20 10:57:57;;;;;;;72.40;37.97;;;77.10;2227.20;;;;;;4917667;29;20032;-75
2022/01/20 11:00:26;;;;;;;74.43;37.67;;;77.20;2227.20;;;;;;4917754;29;20032;-88
2022/01/20 11:02:54;;;;;;;80.78;37.00;;;77.20;2227.20;;;;;;4900502;29;20024;-89
2022/01/20 11:05:21;;;;;;;66.88;34.50;;;77.20;2227.20;;;;;;4904530;29;20040;-92
2022/01/20 11:07:47;;;;;;;76.38;36.25;;;77.20;2227.20;;;;;;4907720;29;20028;-85
2022/01/20 11:10:15;;;;;;;81.22;37.13;;;77.20;2227.20;;;;;;4906294;29;20139;-77
2022/01/20 11:12:41;;;;;;;74.78;36.28;;;77.20;2227.20;;;;;;4907076;29;20024;-90
2022/01/20 11:15:10;;;;;;;;;;;77.20;2227.20;;;;;;4909401;29;20404;-75
2022/01/20 11:17:37;;;;;;;66.32;29.73;;;77.20;2227.20;;;;;;4905670;29;20336;-83
2022/01/20 11:20:08;;;;;;;68.18;33.30;;;77.30;2227.20;;;;;;4907458;29;20020;-78
2022/01/20 11:22:34;;;;;;;68.65;32.05;;;77.50;2227.20;;;;;;4907608;29;20565;-83
2022/01/20 11:25:02;;;;;;;;;;;102.50;2227.20;;;;;;4899474;29;20131;-74
2022/01/20 11:27:40;;;;;;;67.90;32.45;;;102.50;2227.20;;;;;;4897978;29;19914;-76
2022/01/20 11:30:21;;;;;;;67.05;30.48;;;102.80;2227.20;;;;;;4898130;29;20027;-80
2022/01/20 11:33:07;;;;;;;64.45;29.70;;;102.70;2227.20;;;;;;4907633;29;20032;-75
2022/01/20 11:35:59;;;;;;;49.17;25.23;;;102.60;2227.20;;;;;;4907838;29;20055;-75
2022/01/20 11:38:48;;;;;;;53.47;26.13;;;102.70;2227.20;;;;;;4908884;29;20049;-76
2022/01/20 11:41:20;;;;;;;54.60;27.08;;;102.70;2227.20;;;;;;4908273;29;20609;-75
2022/01/20 11:43:53;;;;;;;61.28;27.08;;;102.70;2227.20;;;;;;4908106;29;20020;-84
2022/01/20 11:46:22;;;;;;;52.65;27.00;;;102.60;2227.20;;;;;;4910011;29;20092;-76
2022/01/20 11:48:53;;;;;;;61.13;28.00;;;102.60;2227.20;;;;;;4896567;29;20035;-75
2022/01/20 11:51:19;;;;;;;58.42;25.85;;;102.50;2227.20;;;;;;4906375;29;20432;-86
2022/01/20 11:54:02;;;;;;;47.65;25.95;;;102.50;2227.20;;;;;;4905382;29;20013;-76
2022/01/20 11:56:34;;;;;;;61.40;26.33;;;102.60;2227.20;;;;;;4906513;29;20413;-79
2022/01/20 11:59:00;;;;;;;51.55;24.42;;;102.60;2227.20;;;;;;4888417;29;20076;-84
2022/01/20 12:01:27;;;;;;;59.47;25.30;;;102.60;2227.20;;;;;;4912847;29;20412;-82
2022/01/20 12:03:54;;;;;;;68.15;27.48;;;102.70;2227.20;;;;;;4912854;29;20076;-88
2022/01/20 12:06:25;;;;;;;95.10;40.15;;;102.60;2227.20;;;;;;4907709;29;20500;-76
2022/01/20 12:09:03;;;;;;;76.30;34.75;;;102.60;2227.20;;;;;;4906508;29;20035;-85
2022/01/20 12:11:41;;;;;;;89.15;38.90;;;102.60;2227.20;;;;;;4916684;29;20038;-75
2022/01/20 12:14:08;;;;;;;65.35;30.70;;;102.60;2227.20;;;;;;4899556;29;20111;-76
2022/01/20 12:16:35;;;;;;;66.57;28.35;;;102.60;2227.20;;;;;;4916544;29;20046;-91
2022/01/20 12:19:04;;;;;;;87.80;37.00;;;102.70;2227.20;;;;;;4899184;29;20028;-85
2022/01/20 12:21:30;;;;;;;88.30;39.47;;;102.60;2227.20;;;;;;4898973;29;20052;-87
2022/01/20 12:23:57;;;;;;;94.65;42.53;;;102.70;2227.20;;;;;;4916636;29;20052;-82
2022/01/20 12:26:24;;;;;;;60.85;29.88;;;102.80;2227.20;;;;;;4916654;29;20020;-82
2022/01/20 12:29:08;;;;;;;76.75;33.13;;;102.80;2227.20;;;;;;4916506;29;20032;-75
2022/01/20 12:31:52;;;;;;;57.58;29.92;;;102.80;2227.20;;;;;;4899495;29;20038;-76
2022/01/20 12:34:19;;;;;;;68.57;36.25;;;102.70;2227.20;;;;;;4915936;29;20024;-91
2022/01/20 12:36:56;;;;;;;67.57;35.15;;;102.70;2227.20;;;;;;4916292;29;20032;-76
2022/01/20 12:39:28;;;;;;;70.35;33.03;;;102.70;2227.20;;;;;;4915917;29;20068;-76
2022/01/20 12:41:59;;;;;;;75.28;36.42;;;102.60;2227.20;;;;;;4899091;29;20074;-91
2022/01/20 12:44:39;;;;;;;72.63;30.98;;;102.70;2227.20;;;;;;4916367;29;20131;-82
2022/01/20 12:47:05;;;;;;;68.93;31.45;;;102.70;2227.20;;;;;;4916390;29;20035;-87
2022/01/20 12:49:31;;;;;;;72.28;32.90;;;102.80;2227.20;;;;;;4916203;29;20132;-76
2022/01/20 12:51:57;;;;;;;;;;;102.80;2227.20;;;;;;4898033;29;20430;-78
2022/01/20 12:54:32;;;;;;;61.83;30.73;;;102.90;2227.20;;;;;;4907499;29;20018;-85
2022/01/20 12:57:05;;;;;;;65.03;30.63;;;102.90;2227.20;;;;;;4908553;29;20115;-79
2022/01/20 12:59:34;;;;;;;52.83;25.30;;;103.00;2227.20;;;;;;4916737;29;20027;-84
2022/01/20 13:02:07;;;;;;;59.95;29.15;;;103.10;2227.20;;;;;;4915950;29;20053;-80
2022/01/20 13:04:36;;;;;;;70.32;32.88;;;103.30;2227.20;;;;;;4904284;29;20088;-78
2022/01/20 13:07:04;;;;;;;73.60;34.95;;;103.30;2227.20;;;;;;4900099;29;20037;-75
2022/01/20 13:10:02;;;;;;;78.57;35.70;;;103.30;2227.20;;;;;;4915903;29;20083;-81
2022/01/20 13:12:35;;;;;;;;;;;128.10;2252.80;;;;;;4912937;29;20107;-81
2022/01/20 13:15:03;;;;;;;61.33;29.25;;;128.00;2252.80;;;;;;4910700;29;19907;-80
2022/01/20 13:17:31;;;;;;;65.97;29.92;;;128.00;2252.80;;;;;;4893662;29;20039;-80
2022/01/20 13:19:59;;;;;;;51.53;23.50;;;128.10;2252.80;;;;;;4893556;29;20028;-81
2022/01/20 13:22:38;;;;;;;50.05;24.20;;;103.10;2227.20;;;;;;4910689;29;20048;-79
2022/01/20 13:25:06;;;;;;;50.50;25.60;;;103.30;2227.20;;;;;;4911982;29;20046;-81
2022/01/20 13:27:32;;;;;;;47.55;24.45;;;128.20;2252.80;;;;;;4918647;29;20039;-80
2022/01/20 13:29:58;;;;;;;53.33;26.35;;;128.10;2252.80;;;;;;4908171;29;20032;-81
2022/01/20 13:32:24;;;;;;;67.35;31.92;;;128.30;2252.80;;;;;;4893440;29;20063;-76
2022/01/20 13:34:55;;;;;;;56.33;26.73;;;128.40;2252.80;;;;;;4908974;29;20032;-75
2022/01/20 13:37:21;;;;;;;59.50;28.33;;;128.40;2252.80;;;;;;4909426;29;20522;-79
2022/01/20 13:39:49;;;;;;;63.10;28.48;;;128.30;2252.80;;;;;;4910155;29;20056;-75